Mountain View, Wyoming
Current Conditions -  °F | °C
As of 1:55 PM on Thursday 20 Nov 2014 (Local Time) from KFBR Reporting Station
Broken Clouds Broken Clouds  
Wind Chill: 38°   Ceiling: 6500
Heat Index: 43°   Visibility: 10mi
Dew Point: 16°   Wind: 9mph
Humidity: 33%   Direction: 260°W
Pressure: 30.08"   Gusts: NA
Location:  41.27°N, 110.34°W
Report Text: KFBR 202055Z AUTO 26008KT 10SM BKN065 06/M09 A3008 RMK AO2 T00631089
Loading
Personal Weather Stations






























Interactive Weather Map New forecast layout! Learn more

10-Day Weather Forecast

Advertisements
Track Severe Weather on mobile